createdAt,value
2018-02-20T00:02:09.621Z,30.27
2018-02-20T00:04:38.653Z,34.45
2018-02-20T00:07:06.903Z,35.25
2018-02-20T00:09:35.947Z,26.98
2018-02-20T00:12:04.216Z,33.45
2018-02-20T00:14:33.260Z,30.70
2018-02-20T00:17:02.285Z,33.17
2018-02-20T00:19:30.560Z,31.60
2018-02-20T00:21:58.824Z,35.63
2018-02-20T00:24:27.110Z,37.63
2018-02-20T00:26:55.376Z,35.92
2018-02-20T00:29:24.415Z,32.95
2018-02-20T00:31:52.680Z,35.00
2018-02-20T00:34:21.725Z,30.33
2018-02-20T00:36:50.026Z,33.97
2018-02-20T00:39:18.297Z,30.98
2018-02-20T00:41:46.569Z,34.38
2018-02-20T00:44:14.844Z,29.58
2018-02-20T00:46:48.261Z,31.20
2018-02-20T00:49:16.553Z,36.20
2018-02-20T00:51:46.769Z,36.83
2018-02-20T00:54:15.813Z,39.05
2018-02-20T00:56:44.086Z,36.28
2018-02-20T00:59:12.373Z,40.45
2018-02-20T01:01:40.628Z,32.80
2018-02-20T01:04:09.676Z,34.55
2018-02-20T01:06:37.936Z,33.92
2018-02-20T01:09:06.984Z,33.05
2018-02-20T01:11:35.244Z,34.55
2018-02-20T01:14:03.524Z,31.37
2018-02-20T01:16:31.806Z,32.30
2018-02-20T01:19:00.848Z,36.70
2018-02-20T01:21:29.121Z,33.30
2018-02-20T01:23:57.399Z,33.42
2018-02-20T01:26:25.665Z,34.60
2018-02-20T01:28:53.936Z,37.17
2018-02-20T01:31:23.189Z,36.58
2018-02-20T01:33:51.455Z,33.72
2018-02-20T01:36:20.484Z,33.55
2018-02-20T01:38:48.756Z,36.13
2018-02-20T01:41:17.788Z,39.65
2018-02-20T01:43:46.069Z,36.25
2018-02-20T01:46:14.323Z,36.15
2018-02-20T01:48:42.628Z,35.40
2018-02-20T01:51:11.652Z,35.13
2018-02-20T01:53:39.930Z,36.95
2018-02-20T01:56:08.957Z,34.40
2018-02-20T01:58:37.249Z,35.17
2018-02-20T02:01:06.450Z,38.72
2018-02-20T02:03:34.721Z,38.33
2018-02-20T02:06:04.681Z,38.38
2018-02-20T02:08:32.956Z,36.28
2018-02-20T02:11:01.221Z,39.75
2018-02-20T02:13:30.277Z,33.40
2018-02-20T02:15:58.547Z,40.33
2018-02-20T02:18:26.824Z,40.10
2018-02-20T02:20:55.130Z,35.70
2018-02-20T02:23:23.404Z,34.83
2018-02-20T02:25:51.677Z,35.22
2018-02-20T02:28:20.720Z,36.65
2018-02-20T02:30:48.993Z,39.75
2018-02-20T02:33:17.277Z,38.47
2018-02-20T02:35:45.561Z,39.42
2018-02-20T02:38:13.841Z,36.90
2018-02-20T02:40:42.882Z,39.95
2018-02-20T02:43:11.165Z,40.10
2018-02-20T02:45:39.428Z,42.45
2018-02-20T02:48:07.718Z,44.33
2018-02-20T02:50:36.131Z,44.47
2018-02-20T02:53:04.405Z,39.15
2018-02-20T02:55:32.677Z,38.78
2018-02-20T02:58:04.813Z,39.17
2018-02-20T03:00:33.076Z,41.58
2018-02-20T03:03:03.287Z,35.38
2018-02-20T03:05:31.572Z,40.53
2018-02-20T03:07:59.844Z,42.75
2018-02-20T03:10:28.875Z,43.95
2018-02-20T03:12:57.144Z,50.67
2018-02-20T03:15:26.177Z,45.00
2018-02-20T03:17:54.436Z,44.70
2018-02-20T03:20:23.468Z,44.17
2018-02-20T03:22:51.737Z,45.12
2018-02-20T03:25:20.773Z,45.70
2018-02-20T03:27:49.041Z,48.10
2018-02-20T03:30:18.260Z,45.60
2018-02-20T03:32:46.528Z,46.42
2018-02-20T03:35:15.564Z,47.05
2018-02-20T03:37:43.828Z,49.97
2018-02-20T03:40:12.149Z,51.42
2018-02-20T03:42:40.415Z,57.20
2018-02-20T03:45:08.701Z,53.85
2018-02-20T03:47:36.972Z,62.95
2018-02-20T03:50:06.019Z,57.83
2018-02-20T03:52:35.204Z,52.42
2018-02-20T03:55:03.481Z,49.85
2018-02-20T03:57:32.514Z,58.90
2018-02-20T04:00:00.793Z,60.97
2018-02-20T04:02:29.062Z,63.08
2018-02-20T04:04:58.109Z,52.47
2018-02-20T04:07:26.379Z,56.08
2018-02-20T04:09:54.658Z,56.33
2018-02-20T04:12:23.869Z,60.15
2018-02-20T04:14:52.150Z,62.67
2018-02-20T04:17:21.171Z,70.93
2018-02-20T04:19:52.427Z,55.92
2018-02-20T04:22:20.688Z,57.62
2018-02-20T04:24:49.730Z,49.40
2018-02-20T04:27:18.017Z,51.40
2018-02-20T04:29:46.290Z,54.75
2018-02-20T04:32:15.317Z,54.67
2018-02-20T04:34:43.594Z,56.13
2018-02-20T04:37:11.860Z,63.83
2018-02-20T04:39:40.891Z,59.28
2018-02-20T04:42:09.165Z,57.05
2018-02-20T04:44:39.104Z,57.72
2018-02-20T04:47:07.371Z,50.63
2018-02-20T04:49:36.416Z,52.50
2018-02-20T04:52:04.689Z,57.95
2018-02-20T04:54:32.974Z,59.90
2018-02-20T04:57:02.176Z,65.75
2018-02-20T04:59:30.465Z,69.05
2018-02-20T05:01:59.512Z,72.70
2018-02-20T05:04:27.780Z,73.35
2018-02-20T05:06:56.067Z,69.43
2018-02-20T05:09:24.333Z,67.32
2018-02-20T05:11:54.389Z,65.37
2018-02-20T05:14:22.682Z,63.25
2018-02-20T05:16:50.961Z,70.97
2018-02-20T05:19:23.341Z,68.40
2018-02-20T05:21:51.609Z,77.97
2018-02-20T05:24:33.375Z,81.50
2018-02-20T05:27:01.640Z,76.82
2018-02-20T05:29:29.921Z,66.37
2018-02-20T05:34:58.867Z,59.95
2018-02-20T05:37:27.129Z,60.75
2018-02-20T05:40:02.447Z,58.70
2018-02-20T05:42:30.711Z,66.05
2018-02-20T05:44:58.991Z,55.03
2018-02-20T05:47:27.259Z,51.92
2018-02-20T05:49:55.528Z,53.75
2018-02-20T05:52:24.552Z,55.33
2018-02-20T05:54:53.768Z,57.22
2018-02-20T05:57:22.038Z,54.50
2018-02-20T05:59:51.085Z,58.30
2018-02-20T06:02:19.355Z,59.13
2018-02-20T06:04:47.632Z,53.00
2018-02-20T06:07:15.914Z,53.92
2018-02-20T06:09:44.280Z,48.45
2018-02-20T06:12:12.541Z,55.58
2018-02-20T06:14:40.807Z,55.40
2018-02-20T06:17:09.089Z,55.65
2018-02-20T06:19:37.363Z,61.35
2018-02-20T06:22:05.622Z,54.05
2018-02-20T06:24:33.886Z,58.92
2018-02-20T06:27:02.158Z,53.50
2018-02-20T06:29:30.415Z,56.88
2018-02-20T06:31:58.693Z,50.08
2018-02-20T06:34:27.715Z,48.65
2018-02-20T06:36:55.983Z,50.33
2018-02-20T06:39:25.036Z,47.08
2018-02-20T06:41:53.295Z,51.53
2018-02-20T06:44:21.572Z,49.95
2018-02-20T06:46:50.633Z,56.80
2018-02-20T06:49:18.892Z,57.70
2018-02-20T06:51:47.169Z,54.78
2018-02-20T06:54:15.438Z,54.53
2018-02-20T06:56:44.488Z,57.45
2018-02-20T06:59:12.750Z,57.72
2018-02-20T07:01:41.026Z,55.20
2018-02-20T07:04:15.365Z,55.33
2018-02-20T07:06:43.643Z,58.78
2018-02-20T07:09:12.675Z,52.08
2018-02-20T07:11:40.940Z,47.00
2018-02-20T07:14:09.218Z,51.88
2018-02-20T07:16:38.265Z,50.90
2018-02-20T07:19:06.519Z,52.15
2018-02-20T07:21:35.744Z,51.55
2018-02-20T07:24:04.012Z,51.20
2018-02-20T07:26:33.060Z,52.90
2018-02-20T07:29:01.328Z,50.63
2018-02-20T07:31:29.599Z,51.00
2018-02-20T07:33:58.641Z,47.13
2018-02-20T07:36:26.912Z,44.55
2018-02-20T07:38:56.129Z,45.28
2018-02-20T07:41:24.405Z,50.20
2018-02-20T07:43:52.683Z,49.20
2018-02-20T07:46:22.746Z,49.08
2018-02-20T07:48:51.010Z,46.50
2018-02-20T07:51:19.277Z,47.47
2018-02-20T07:53:48.317Z,46.15
2018-02-20T07:56:16.601Z,46.85
2018-02-20T07:58:44.875Z,44.63
2018-02-20T08:01:13.921Z,47.60
2018-02-20T08:03:42.193Z,43.80
2018-02-20T08:06:10.468Z,42.08
2018-02-20T08:08:38.746Z,40.63
2018-02-20T08:11:07.028Z,40.25
2018-02-20T08:13:36.055Z,39.65
2018-02-20T08:16:04.464Z,40.58
2018-02-20T08:18:32.617Z,44.88
2018-02-20T08:21:08.363Z,43.38
2018-02-20T08:23:37.401Z,42.97
2018-02-20T08:26:05.678Z,40.63
2018-02-20T08:28:35.933Z,40.60
2018-02-20T08:31:06.156Z,39.67
2018-02-20T08:33:45.478Z,40.40
2018-02-20T08:36:14.516Z,41.10
2018-02-20T08:38:42.794Z,45.72
2018-02-20T08:41:16.117Z,41.95
2018-02-20T08:43:44.390Z,41.17
2018-02-20T08:46:12.673Z,42.17
2018-02-20T08:48:47.213Z,41.22
2018-02-20T08:51:15.479Z,41.72
2018-02-20T08:53:44.516Z,39.97
2018-02-20T08:56:12.798Z,38.10
2018-02-20T08:58:41.070Z,43.30
2018-02-20T09:01:15.325Z,41.13
2018-02-20T09:03:43.588Z,48.92
2018-02-20T09:06:18.050Z,44.15
2018-02-20T09:08:46.311Z,50.60
2018-02-20T09:11:15.358Z,49.80
2018-02-20T09:13:44.532Z,48.08
2018-02-20T09:16:12.820Z,40.53
2018-02-20T09:18:42.906Z,45.60
2018-02-20T09:21:15.261Z,42.67
2018-02-20T09:23:43.528Z,37.40
2018-02-20T09:26:11.813Z,39.45
2018-02-20T09:28:40.080Z,35.65
2018-02-20T09:31:08.348Z,37.92
2018-02-20T09:33:36.723Z,38.60
2018-02-20T09:36:04.997Z,39.38
2018-02-20T09:38:33.266Z,35.72
2018-02-20T09:41:02.480Z,34.88
2018-02-20T09:43:38.208Z,31.77
2018-02-20T09:46:07.253Z,32.88
2018-02-20T09:48:35.526Z,29.75
2018-02-20T09:51:03.813Z,29.08
2018-02-20T09:53:36.092Z,28.92
2018-02-20T09:56:05.141Z,30.17
2018-02-20T09:58:33.404Z,31.80
2018-02-20T10:01:01.694Z,31.30
2018-02-20T10:03:42.129Z,29.70
2018-02-20T10:06:16.168Z,30.33
2018-02-20T10:08:45.205Z,26.62
2018-02-20T10:11:25.848Z,28.87
2018-02-20T10:14:18.062Z,29.63
2018-02-20T10:16:49.792Z,28.45
2018-02-20T10:19:18.069Z,30.10
2018-02-20T10:22:06.298Z,30.30
2018-02-20T10:24:34.563Z,36.60
2018-02-20T10:27:02.840Z,34.37
2018-02-20T10:29:32.012Z,28.57
2018-02-20T10:32:00.288Z,28.10
2018-02-20T10:34:37.686Z,29.00
2018-02-20T10:37:06.733Z,30.60
2018-02-20T10:39:35.004Z,26.73
2018-02-20T10:42:13.295Z,30.37
2018-02-20T10:44:41.551Z,31.87
2018-02-20T10:47:09.827Z,30.02
2018-02-20T10:49:52.244Z,25.97
2018-02-20T10:52:20.523Z,32.97
2018-02-20T10:55:07.835Z,28.63
2018-02-20T10:57:36.883Z,29.17
2018-02-20T11:00:21.562Z,31.33
2018-02-20T11:02:49.830Z,28.13
2018-02-20T11:05:18.088Z,29.30
2018-02-20T11:07:47.119Z,29.30
2018-02-20T11:10:15.383Z,27.77
2018-02-20T11:12:44.430Z,28.83
2018-02-20T11:15:12.679Z,52.73
2018-02-20T11:17:41.713Z,27.90
2018-02-20T11:20:15.787Z,33.67
2018-02-20T11:22:44.055Z,27.70
2018-02-20T11:25:23.641Z,28.70
2018-02-20T11:27:53.921Z,31.77
2018-02-20T11:30:46.721Z,27.93
2018-02-20T11:33:15.997Z,30.03
2018-02-20T11:35:45.293Z,31.60
2018-02-20T11:38:19.121Z,30.10
2018-02-20T11:40:55.059Z,30.70
2018-02-20T11:43:28.187Z,32.40
2018-02-20T11:45:58.437Z,28.92
2018-02-20T11:51:35.621Z,30.40
2018-02-20T11:54:05.893Z,37.55
2018-02-20T11:56:34.268Z,46.13
2018-02-20T11:59:03.315Z,37.37
2018-02-20T12:01:42.918Z,35.43
2018-02-20T12:04:11.752Z,34.97
2018-02-20T12:06:40.078Z,36.23
2018-02-20T12:09:10.259Z,33.00
2018-02-20T12:11:38.546Z,34.88
2018-02-20T12:14:07.759Z,38.20
2018-02-20T12:16:53.187Z,35.50
2018-02-20T12:19:21.448Z,37.90
2018-02-20T12:21:49.720Z,38.80
2018-02-20T12:24:22.229Z,36.43
2018-02-20T12:26:50.499Z,36.35
2018-02-20T12:29:18.764Z,36.60
2018-02-20T12:31:47.043Z,36.70
2018-02-20T12:34:15.317Z,39.80
2018-02-20T12:36:43.584Z,35.60
2018-02-20T12:39:12.620Z,37.77
2018-02-20T12:41:41.166Z,36.60
2018-02-20T12:44:14.370Z,36.90
2018-02-20T12:46:42.661Z,36.90
2018-02-20T12:49:10.940Z,40.83
2018-02-20T12:51:41.175Z,45.12
2018-02-20T12:54:13.045Z,41.65
2018-02-20T12:59:52.407Z,42.87
2018-02-20T13:02:21.457Z,43.77
2018-02-20T13:04:49.737Z,41.30
2018-02-20T13:07:24.484Z,43.35
2018-02-20T13:09:52.775Z,47.10
2018-02-20T13:12:21.067Z,42.78
2018-02-20T13:14:49.354Z,54.70
2018-02-20T13:17:25.083Z,55.47
2018-02-20T13:20:04.245Z,44.17
2018-02-20T13:22:34.500Z,41.35
2018-02-20T13:25:02.950Z,41.10
2018-02-20T13:27:31.997Z,43.13
2018-02-20T13:30:00.264Z,54.97
2018-02-20T13:32:28.548Z,46.53
2018-02-20T13:34:56.827Z,48.83
2018-02-20T13:37:25.877Z,51.10
2018-02-20T13:39:54.148Z,51.35
2018-02-20T13:42:22.443Z,54.90
2018-02-20T13:44:51.560Z,55.00
2018-02-20T13:47:19.817Z,58.67
2018-02-20T13:49:57.997Z,59.65
2018-02-20T13:52:26.280Z,60.80
2018-02-20T13:54:54.565Z,57.10
2018-02-20T13:57:22.853Z,58.92
2018-02-20T13:59:51.125Z,52.00
2018-02-20T14:02:19.537Z,60.33
2018-02-20T14:04:47.808Z,56.25
2018-02-20T14:07:16.089Z,59.33
2018-02-20T14:09:44.369Z,65.12
2018-02-20T14:12:12.640Z,62.65
2018-02-20T14:14:40.929Z,63.70
2018-02-20T14:17:09.221Z,60.08
2018-02-20T14:19:37.693Z,62.20
2018-02-20T14:22:05.984Z,58.03
2018-02-20T14:24:35.033Z,62.35
2018-02-20T14:27:03.416Z,46.33
2018-02-20T14:29:31.701Z,60.12
2018-02-20T14:31:59.970Z,68.82
2018-02-20T14:34:29.026Z,66.95
2018-02-20T14:36:57.293Z,69.25
2018-02-20T14:39:25.559Z,63.28
2018-02-20T14:41:53.839Z,67.32
2018-02-20T14:44:22.891Z,63.42
2018-02-20T14:46:51.153Z,68.45
2018-02-20T14:49:19.426Z,66.95
2018-02-20T14:51:47.705Z,69.60
2018-02-20T14:54:15.979Z,69.32
2018-02-20T14:56:45.018Z,60.15
2018-02-20T14:59:14.094Z,69.32
2018-02-20T15:01:44.030Z,70.87
2018-02-20T15:04:12.292Z,62.88
2018-02-20T15:06:40.619Z,77.90
2018-02-20T15:09:09.651Z,72.87
2018-02-20T15:11:37.907Z,68.18
2018-02-20T15:14:08.544Z,70.70
2018-02-20T15:16:37.572Z,70.22
2018-02-20T15:19:05.850Z,69.82
2018-02-20T15:21:34.876Z,72.47
2018-02-20T15:24:03.149Z,68.82
2018-02-20T15:26:31.421Z,72.65
2018-02-20T15:29:00.462Z,69.15
2018-02-20T15:31:28.740Z,71.18
2018-02-20T15:33:57.008Z,63.28
2018-02-20T15:36:26.046Z,63.87
2018-02-20T15:38:54.326Z,62.47
2018-02-20T15:41:22.614Z,67.15
2018-02-20T15:43:50.896Z,57.75
2018-02-20T15:46:19.156Z,63.28
2018-02-20T15:48:48.210Z,61.05
2018-02-20T15:51:16.473Z,56.50
2018-02-20T15:53:44.753Z,63.35
2018-02-20T15:56:14.398Z,61.72
2018-02-20T15:58:42.672Z,60.28
2018-02-20T16:01:10.947Z,62.65
2018-02-20T16:03:40.012Z,60.70
2018-02-20T16:06:08.280Z,61.88
2018-02-20T16:08:37.514Z,61.10
2018-02-20T16:11:05.787Z,58.95
2018-02-20T16:13:34.094Z,56.50
2018-02-20T16:16:08.306Z,57.22
2018-02-20T16:18:36.593Z,58.60
2018-02-20T16:21:05.655Z,57.50
2018-02-20T16:23:33.941Z,59.05
2018-02-20T16:26:02.204Z,59.72
2018-02-20T16:28:30.481Z,67.25
2018-02-20T16:30:58.750Z,61.15
2018-02-20T16:33:27.024Z,59.15
2018-02-20T16:35:57.271Z,57.75
2018-02-20T16:38:27.496Z,63.63
2018-02-20T16:40:55.759Z,64.60
2018-02-20T16:43:27.053Z,62.55
2018-02-20T16:45:55.334Z,61.88
2018-02-20T16:48:23.613Z,59.90
2018-02-20T16:50:53.556Z,57.60
2018-02-20T16:53:22.798Z,60.45
2018-02-20T16:55:51.059Z,68.10
2018-02-20T16:58:32.886Z,60.40
2018-02-20T17:01:02.062Z,59.83
2018-02-20T17:03:30.341Z,59.30
2018-02-20T17:05:59.369Z,55.85
2018-02-20T17:08:28.573Z,57.95
2018-02-20T17:10:56.842Z,60.63
2018-02-20T17:13:25.874Z,58.50
2018-02-20T17:15:57.137Z,62.62
2018-02-20T17:18:25.415Z,59.55
2018-02-20T17:20:53.694Z,61.67
2018-02-20T17:23:21.978Z,63.13
2018-02-20T17:25:51.010Z,69.43
2018-02-20T17:28:19.280Z,65.55
2018-02-20T17:30:47.541Z,72.80
2018-02-20T17:33:15.851Z,63.78
2018-02-20T17:35:44.881Z,68.75
2018-02-20T17:38:13.170Z,70.20
2018-02-20T17:40:42.364Z,69.20
2018-02-20T17:43:10.650Z,70.35
2018-02-20T17:45:39.683Z,72.80
2018-02-20T17:48:07.954Z,74.00
2018-02-20T17:50:36.301Z,72.00
2018-02-20T17:53:04.570Z,66.75
2018-02-20T17:55:32.901Z,72.07
2018-02-20T17:58:01.967Z,69.00
2018-02-20T18:00:35.644Z,67.20
2018-02-20T18:03:03.907Z,70.20
2018-02-20T18:05:32.945Z,67.15
2018-02-20T18:08:17.748Z,75.07
2018-02-20T18:10:46.011Z,76.40
2018-02-20T18:13:18.905Z,79.32
2018-02-20T18:15:47.177Z,74.72
2018-02-20T18:18:15.442Z,76.78
2018-02-20T18:20:43.730Z,66.25
2018-02-20T18:23:12.992Z,75.97
2018-02-20T18:25:44.042Z,74.32
2018-02-20T18:28:13.237Z,74.65
2018-02-20T18:30:53.948Z,73.60
2018-02-20T18:33:22.241Z,72.32
2018-02-20T18:35:50.537Z,72.70
2018-02-20T18:38:18.811Z,75.68
2018-02-20T18:40:47.085Z,78.90
2018-02-20T18:43:15.357Z,73.60
2018-02-20T18:45:44.241Z,84.78
2018-02-20T18:48:20.147Z,74.95
2018-02-20T18:50:49.153Z,76.25
2018-02-20T18:53:17.422Z,77.10
2018-02-20T18:55:45.693Z,80.03
2018-02-20T18:58:14.734Z,82.28
2018-02-20T19:00:42.999Z,77.62
2018-02-20T19:03:11.271Z,73.12
2018-02-20T19:05:40.535Z,91.30
2018-02-20T19:08:08.799Z,78.47
2018-02-20T19:10:37.078Z,84.30
2018-02-20T19:13:15.251Z,80.55
2018-02-20T19:15:43.533Z,82.35
2018-02-20T19:18:11.797Z,87.60
2018-02-20T19:20:40.766Z,81.87
2018-02-20T19:23:09.792Z,80.40
2018-02-20T19:25:38.082Z,83.20
2018-02-20T19:28:06.343Z,78.07
2018-02-20T19:30:35.390Z,88.55
2018-02-20T19:33:03.835Z,80.62
2018-02-20T19:35:32.829Z,79.93
2018-02-20T19:38:01.094Z,76.60
2018-02-20T19:40:29.370Z,85.38
2018-02-20T19:42:58.396Z,82.70
2018-02-20T19:45:26.802Z,79.97
2018-02-20T19:47:55.202Z,82.15
2018-02-20T19:50:24.438Z,86.55
2018-02-20T19:52:52.816Z,84.82
2018-02-20T19:55:21.881Z,84.22
2018-02-20T19:57:50.151Z,87.05
2018-02-20T20:00:18.633Z,84.80
2018-02-20T20:02:46.891Z,82.72
2018-02-20T20:05:15.938Z,84.22
2018-02-20T20:07:44.972Z,83.72
2018-02-20T20:10:13.258Z,79.28
2018-02-20T20:12:41.533Z,86.93
2018-02-20T20:15:09.796Z,84.87
2018-02-20T20:17:38.081Z,87.25
2018-02-20T20:20:06.364Z,85.60
2018-02-20T20:22:35.407Z,84.97
2018-02-20T20:25:03.674Z,84.65
2018-02-20T20:27:31.960Z,86.20
2018-02-20T20:30:00.236Z,82.68
2018-02-20T20:32:28.521Z,78.62
2018-02-20T20:34:57.556Z,79.68
2018-02-20T20:37:26.584Z,76.18
2018-02-20T20:39:54.873Z,74.65
2018-02-20T20:42:23.134Z,78.78
2018-02-20T20:44:51.407Z,78.20
2018-02-20T20:47:19.683Z,74.40
2018-02-20T20:49:48.717Z,73.87
2018-02-20T20:52:16.984Z,77.57
2018-02-20T20:54:45.257Z,69.32
2018-02-20T20:57:14.385Z,77.90
2018-02-20T20:59:42.668Z,76.20
2018-02-20T21:02:11.692Z,77.45
2018-02-20T21:04:39.969Z,75.15
2018-02-20T21:07:08.276Z,73.35
2018-02-20T21:09:37.280Z,71.07
2018-02-20T21:12:05.556Z,75.95
2018-02-20T21:14:33.828Z,80.28
2018-02-20T21:17:02.862Z,79.43
2018-02-20T21:19:31.166Z,71.90
2018-02-20T21:21:59.427Z,76.70
2018-02-20T21:24:27.714Z,79.50
2018-02-20T21:26:56.007Z,75.97
2018-02-20T21:29:25.025Z,68.87
2018-02-20T21:31:53.322Z,73.10
2018-02-20T21:34:21.596Z,71.30
2018-02-20T21:36:49.869Z,70.50
2018-02-20T21:39:18.151Z,72.47
2018-02-20T21:41:46.419Z,74.37
2018-02-20T21:44:15.449Z,68.47
2018-02-20T21:46:43.728Z,69.25
2018-02-20T21:49:12.765Z,74.12
2018-02-20T21:51:41.031Z,71.15
2018-02-20T21:54:09.305Z,77.05
2018-02-20T21:56:38.354Z,72.70
2018-02-20T21:59:06.625Z,76.70
2018-02-20T22:01:34.911Z,70.03
2018-02-20T22:04:03.177Z,73.07
2018-02-20T22:06:32.224Z,78.65
2018-02-20T22:09:00.485Z,77.20
2018-02-20T22:11:28.759Z,80.55
2018-02-20T22:13:57.791Z,70.82
2018-02-20T22:16:26.060Z,77.65
2018-02-20T22:18:55.112Z,75.55
2018-02-20T22:21:23.396Z,81.65
2018-02-20T22:23:51.661Z,85.07
2018-02-20T22:26:19.942Z,78.03
2018-02-20T22:28:48.212Z,76.28
2018-02-20T22:31:17.262Z,83.30
2018-02-20T22:33:45.545Z,76.70
2018-02-20T22:36:14.594Z,80.68
2018-02-20T22:38:42.859Z,78.22
2018-02-20T22:41:11.131Z,78.95
2018-02-20T22:43:39.409Z,84.53
2018-02-20T22:46:07.694Z,76.50
2018-02-20T22:48:35.964Z,95.32
2018-02-20T22:51:05.005Z,89.90
2018-02-20T22:53:33.283Z,89.75
2018-02-20T22:56:01.577Z,91.70
2018-02-20T22:58:29.836Z,95.18
2018-02-20T23:00:58.869Z,94.70
2018-02-20T23:03:27.132Z,91.75
2018-02-20T23:05:56.186Z,93.75
2018-02-20T23:08:24.444Z,89.72
2018-02-20T23:10:52.747Z,95.12
2018-02-20T23:13:21.000Z,91.28
2018-02-20T23:15:50.036Z,89.60
2018-02-20T23:18:18.295Z,97.55
2018-02-20T23:20:47.332Z,96.70
2018-02-20T23:23:15.594Z,94.13
2018-02-20T23:25:44.636Z,90.32
2018-02-20T23:28:12.896Z,82.12
2018-02-20T23:30:41.184Z,81.95
2018-02-20T23:33:09.452Z,79.37
2018-02-20T23:35:38.495Z,80.85
2018-02-20T23:38:06.762Z,85.40
2018-02-20T23:40:35.050Z,84.65
2018-02-20T23:43:04.093Z,82.35
2018-02-20T23:45:32.374Z,89.87
2018-02-20T23:48:00.623Z,86.68
2018-02-20T23:50:29.676Z,79.85
2018-02-20T23:52:57.944Z,81.63
2018-02-20T23:55:26.245Z,74.40
2018-02-20T23:57:54.508Z,75.72
